createdAt,value
2019-02-26T00:00:30.362Z,1029.75
2019-02-26T00:01:30.912Z,1029.73
2019-02-26T00:02:30.518Z,1029.72
2019-02-26T00:03:31.422Z,1029.73
2019-02-26T00:04:32.141Z,1029.70
2019-02-26T00:05:31.198Z,1029.72
2019-02-26T00:06:30.325Z,1029.64
2019-02-26T00:07:32.071Z,1029.67
2019-02-26T00:08:31.709Z,1029.67
2019-02-26T00:09:32.347Z,1029.60
2019-02-26T00:10:31.544Z,1029.58
2019-02-26T00:11:30.863Z,1029.64
2019-02-26T00:12:31.044Z,1029.56
2019-02-26T00:13:31.973Z,1029.53
2019-02-26T00:14:30.421Z,1029.53
2019-02-26T00:15:33.338Z,1029.57
2019-02-26T00:16:35.349Z,1029.51
2019-02-26T00:17:30.263Z,1029.52
2019-02-26T00:18:30.143Z,1029.46
2019-02-26T00:19:30.250Z,1029.57
2019-02-26T00:20:33.278Z,1029.57
2019-02-26T00:21:31.067Z,1029.52
2019-02-26T00:22:32.235Z,1029.51
2019-02-26T00:23:30.170Z,1029.52
2019-02-26T00:24:30.850Z,1029.56
2019-02-26T00:25:30.186Z,1029.51
2019-02-26T00:26:30.054Z,1029.39
2019-02-26T00:27:30.629Z,1029.50
2019-02-26T00:28:30.032Z,1029.48
2019-02-26T00:29:32.030Z,1029.47
2019-02-26T00:30:31.188Z,1029.48
2019-02-26T00:31:30.482Z,1029.45
2019-02-26T00:32:31.857Z,1029.46
2019-02-26T00:33:30.037Z,1029.37
2019-02-26T00:34:32.164Z,1029.34
2019-02-26T00:35:30.109Z,1029.36
2019-02-26T00:36:31.586Z,1029.36
2019-02-26T00:37:30.688Z,1029.37
2019-02-26T00:38:29.927Z,1029.28
2019-02-26T00:40:32.634Z,1029.32
2019-02-26T00:41:31.852Z,1029.32
2019-02-26T00:42:32.012Z,1029.32
2019-02-26T00:43:30.658Z,1029.35
2019-02-26T00:44:32.200Z,1029.31
2019-02-26T00:45:31.754Z,1029.36
2019-02-26T00:46:30.294Z,1029.40
2019-02-26T00:47:33.676Z,1029.38
2019-02-26T00:48:31.578Z,1029.38
2019-02-26T00:49:30.255Z,1029.30
2019-02-26T00:50:30.385Z,1029.32
2019-02-26T00:51:29.880Z,1029.24
2019-02-26T00:52:30.374Z,1029.30
2019-02-26T00:53:30.631Z,1029.25
2019-02-26T00:54:31.928Z,1029.24
2019-02-26T00:56:31.704Z,1029.24
2019-02-26T00:57:31.696Z,1029.29
2019-02-26T00:58:32.115Z,1029.23
2019-02-26T00:59:30.833Z,1029.22
2019-02-26T01:00:30.865Z,1029.21
2019-02-26T01:01:29.722Z,1029.26
2019-02-26T01:02:29.689Z,1029.22
2019-02-26T01:03:29.755Z,1029.23
2019-02-26T01:04:29.691Z,1029.20
2019-02-26T01:05:29.745Z,1029.22
2019-02-26T01:06:31.167Z,1029.18
2019-02-26T01:07:30.349Z,1029.15
2019-02-26T01:08:29.633Z,1029.14
2019-02-26T01:09:31.738Z,1029.13
2019-02-26T01:10:29.590Z,1029.13
2019-02-26T01:11:30.228Z,1029.12
2019-02-26T01:12:30.975Z,1029.09
2019-02-26T01:13:30.077Z,1029.11
2019-02-26T01:14:29.550Z,1029.14
2019-02-26T01:15:29.609Z,1029.12
2019-02-26T01:16:29.551Z,1029.14
2019-02-26T01:17:31.157Z,1029.12
2019-02-26T01:18:29.502Z,1029.09
2019-02-26T01:19:29.568Z,1029.11
2019-02-26T01:20:30.219Z,1029.14
2019-02-26T01:21:31.101Z,1029.12
2019-02-26T01:22:31.093Z,1029.09
2019-02-26T01:23:29.564Z,1029.04
2019-02-26T01:24:30.997Z,1029.00
2019-02-26T01:25:29.476Z,1029.02
2019-02-26T01:26:29.415Z,1028.98
2019-02-26T01:27:29.492Z,1029.01
2019-02-26T01:28:29.394Z,1029.04
2019-02-26T01:29:30.629Z,1029.05
2019-02-26T01:30:31.311Z,1029.09
2019-02-26T01:31:31.556Z,1029.09
2019-02-26T01:32:29.357Z,1029.05
2019-02-26T01:33:30.270Z,1029.10
2019-02-26T01:34:29.392Z,1029.09
2019-02-26T01:35:30.775Z,1029.08
2019-02-26T01:36:29.308Z,1029.10
2019-02-26T01:37:30.020Z,1029.08
2019-02-26T01:38:29.287Z,1029.15
2019-02-26T01:39:29.397Z,1029.15
2019-02-26T01:40:29.287Z,1029.16
2019-02-26T01:41:29.386Z,1029.17
2019-02-26T01:42:29.882Z,1029.15
2019-02-26T01:44:32.409Z,1029.15
2019-02-26T01:45:30.480Z,1029.08
2019-02-26T01:46:30.087Z,1029.16
2019-02-26T01:47:29.257Z,1029.18
2019-02-26T01:48:29.908Z,1029.14
2019-02-26T01:49:29.264Z,1029.12
2019-02-26T01:50:30.859Z,1029.15
2019-02-26T01:51:29.247Z,1029.10
2019-02-26T01:52:29.142Z,1029.09
2019-02-26T01:53:29.159Z,1029.08
2019-02-26T01:54:30.505Z,1029.12
2019-02-26T01:55:29.208Z,1029.09
2019-02-26T01:56:29.100Z,1029.14
2019-02-26T01:57:29.199Z,1029.16
2019-02-26T01:58:29.082Z,1029.10
2019-02-26T01:59:29.101Z,1029.04
2019-02-26T02:00:29.085Z,1029.03
2019-02-26T02:01:29.117Z,1028.96
2019-02-26T02:02:30.284Z,1028.98
2019-02-26T02:03:30.235Z,1028.95
2019-02-26T02:04:29.017Z,1028.93
2019-02-26T02:05:31.286Z,1028.91
2019-02-26T02:06:30.284Z,1028.97
2019-02-26T02:07:30.595Z,1028.90
2019-02-26T02:08:28.973Z,1028.87
2019-02-26T02:09:29.102Z,1028.84
2019-02-26T02:10:28.950Z,1028.79
2019-02-26T02:11:31.199Z,1028.75
2019-02-26T02:12:31.549Z,1028.75
2019-02-26T02:13:30.653Z,1028.78
2019-02-26T02:14:28.903Z,1028.71
2019-02-26T02:15:29.039Z,1028.68
2019-02-26T02:16:30.913Z,1028.66
2019-02-26T02:17:30.885Z,1028.67
2019-02-26T02:18:29.903Z,1028.55
2019-02-26T02:19:30.199Z,1028.64
2019-02-26T02:20:28.838Z,1028.54
2019-02-26T02:21:31.095Z,1028.49
2019-02-26T02:22:29.570Z,1028.49
2019-02-26T02:23:30.355Z,1028.49
2019-02-26T02:24:28.838Z,1028.46
2019-02-26T02:25:31.403Z,1028.51
2019-02-26T02:26:28.780Z,1028.53
2019-02-26T02:27:32.983Z,1028.54
2019-02-26T02:28:30.987Z,1028.55
2019-02-26T02:29:28.794Z,1028.54
2019-02-26T02:30:31.269Z,1028.54
2019-02-26T02:31:31.252Z,1028.57
2019-02-26T02:32:31.864Z,1028.50
2019-02-26T02:33:30.029Z,1028.49
2019-02-26T02:34:29.555Z,1028.48
2019-02-26T02:35:28.734Z,1028.46
2019-02-26T02:36:28.743Z,1028.49
2019-02-26T02:37:30.061Z,1028.36
2019-02-26T02:38:28.650Z,1028.43
2019-02-26T02:40:29.751Z,1028.41
2019-02-26T02:41:28.673Z,1028.39
2019-02-26T02:42:28.768Z,1028.46
2019-02-26T02:43:28.700Z,1028.43
2019-02-26T02:44:28.581Z,1028.37
2019-02-26T02:45:28.598Z,1028.41
2019-02-26T02:46:28.593Z,1028.37
2019-02-26T02:47:31.589Z,1028.32
2019-02-26T02:49:30.112Z,1028.34
2019-02-26T02:50:28.650Z,1028.30
2019-02-26T02:51:31.112Z,1028.35
2019-02-26T02:52:30.369Z,1028.30
2019-02-26T02:53:30.208Z,1028.37
2019-02-26T02:54:28.471Z,1028.38
2019-02-26T02:55:28.567Z,1028.38
2019-02-26T02:56:30.760Z,1028.40
2019-02-26T02:57:30.031Z,1028.34
2019-02-26T02:58:28.432Z,1028.37
2019-02-26T03:00:32.200Z,1028.31
2019-02-26T03:01:28.789Z,1028.34
2019-02-26T03:02:28.414Z,1028.40
2019-02-26T03:03:28.421Z,1028.34
2019-02-26T03:04:31.164Z,1028.40
2019-02-26T03:05:33.689Z,1028.44
2019-02-26T03:06:30.572Z,1028.42
2019-02-26T03:07:29.415Z,1028.40
2019-02-26T03:08:28.318Z,1028.36
2019-02-26T03:09:28.354Z,1028.33
2019-02-26T03:10:30.823Z,1028.32
2019-02-26T03:11:28.368Z,1028.38
2019-02-26T03:12:28.296Z,1028.36
2019-02-26T03:13:28.386Z,1028.38
2019-02-26T03:14:30.765Z,1028.43
2019-02-26T03:15:30.013Z,1028.38
2019-02-26T03:16:28.230Z,1028.31
2019-02-26T03:17:28.341Z,1028.33
2019-02-26T03:18:28.241Z,1028.35
2019-02-26T03:19:29.641Z,1028.40
2019-02-26T03:20:30.835Z,1028.35
2019-02-26T03:21:30.517Z,1028.34
2019-02-26T03:22:28.168Z,1028.37
2019-02-26T03:23:28.277Z,1028.39
2019-02-26T03:24:30.771Z,1028.37
2019-02-26T03:25:29.153Z,1028.40
2019-02-26T03:26:28.124Z,1028.38
2019-02-26T03:27:31.361Z,1028.44
2019-02-26T03:28:29.141Z,1028.40
2019-02-26T03:29:28.188Z,1028.40
2019-02-26T03:30:36.946Z,1028.45
2019-02-26T03:31:33.717Z,1028.41
2019-02-26T03:32:29.129Z,1028.45
2019-02-26T03:33:28.085Z,1028.45
2019-02-26T03:34:28.119Z,1028.52
2019-02-26T03:35:28.028Z,1028.46
2019-02-26T03:36:28.135Z,1028.53
2019-02-26T03:37:28.810Z,1028.42
2019-02-26T03:38:28.869Z,1028.49
2019-02-26T03:39:27.977Z,1028.52
2019-02-26T03:40:29.892Z,1028.49
2019-02-26T03:41:29.083Z,1028.54
2019-02-26T03:42:27.969Z,1028.54
2019-02-26T03:43:28.709Z,1028.51
2019-02-26T03:44:30.307Z,1028.53
2019-02-26T03:45:27.914Z,1028.54
2019-02-26T03:46:28.000Z,1028.53
2019-02-26T03:47:27.899Z,1028.60
2019-02-26T03:48:27.948Z,1028.61
2019-02-26T03:49:27.870Z,1028.60
2019-02-26T03:50:27.926Z,1028.57
2019-02-26T03:51:27.846Z,1028.56
2019-02-26T03:52:28.974Z,1028.62
2019-02-26T03:53:30.240Z,1028.65
2019-02-26T03:54:28.903Z,1028.65
2019-02-26T03:55:27.806Z,1028.69
2019-02-26T03:56:27.866Z,1028.76
2019-02-26T03:57:27.784Z,1028.71
2019-02-26T03:58:27.879Z,1028.73
2019-02-26T03:59:27.814Z,1028.71
2019-02-26T04:00:27.789Z,1028.67
2019-02-26T04:01:27.738Z,1028.71
2019-02-26T04:02:27.803Z,1028.68
2019-02-26T04:03:29.594Z,1028.60
2019-02-26T04:04:30.485Z,1028.65
2019-02-26T04:05:27.717Z,1028.62
2019-02-26T04:06:27.728Z,1028.72
2019-02-26T04:07:28.367Z,1028.66
2019-02-26T04:08:30.140Z,1028.68
2019-02-26T04:09:27.681Z,1028.74
2019-02-26T04:10:27.765Z,1028.78
2019-02-26T04:11:27.845Z,1028.75
2019-02-26T04:12:27.665Z,1028.79
2019-02-26T04:13:27.608Z,1028.77
2019-02-26T04:14:28.782Z,1028.79
2019-02-26T04:15:29.997Z,1028.77
2019-02-26T04:16:29.638Z,1028.75
2019-02-26T04:17:28.696Z,1028.75
2019-02-26T04:18:27.615Z,1028.75
2019-02-26T04:19:27.560Z,1028.80
2019-02-26T04:20:27.931Z,1028.75
2019-02-26T04:21:27.514Z,1028.75
2019-02-26T04:22:27.547Z,1028.74
2019-02-26T04:23:27.498Z,1028.72
2019-02-26T04:25:32.728Z,1028.67
2019-02-26T04:26:29.146Z,1028.73
2019-02-26T04:27:28.251Z,1028.74
2019-02-26T04:28:30.839Z,1028.74
2019-02-26T04:29:28.425Z,1028.75
2019-02-26T04:30:27.513Z,1028.76
2019-02-26T04:31:27.401Z,1028.73
2019-02-26T04:32:27.500Z,1028.70
2019-02-26T04:33:28.447Z,1028.68
2019-02-26T04:34:27.412Z,1028.66
2019-02-26T04:35:27.381Z,1028.60
2019-02-26T04:36:27.462Z,1028.67
2019-02-26T04:37:29.633Z,1028.66
2019-02-26T04:38:29.083Z,1028.63
2019-02-26T04:39:27.332Z,1028.66
2019-02-26T04:40:30.034Z,1028.69
2019-02-26T04:41:27.318Z,1028.72
2019-02-26T04:42:27.365Z,1028.73
2019-02-26T04:43:27.916Z,1028.70
2019-02-26T04:44:29.213Z,1028.75
2019-02-26T04:45:27.256Z,1028.66
2019-02-26T04:46:28.882Z,1028.71
2019-02-26T04:47:29.800Z,1028.68
2019-02-26T04:48:29.241Z,1028.67
2019-02-26T04:49:28.163Z,1028.72
2019-02-26T04:50:31.646Z,1028.68
2019-02-26T04:51:28.221Z,1028.66
2019-02-26T04:52:29.372Z,1028.70
2019-02-26T04:53:28.719Z,1028.68
2019-02-26T04:54:30.238Z,1028.73
2019-02-26T04:55:29.284Z,1028.75
2019-02-26T04:56:31.294Z,1028.68
2019-02-26T04:57:28.117Z,1028.77
2019-02-26T04:58:27.678Z,1028.71
2019-02-26T04:59:29.792Z,1028.77
2019-02-26T05:00:30.463Z,1028.71
2019-02-26T05:01:27.117Z,1028.75
2019-02-26T05:03:28.246Z,1028.68
2019-02-26T05:05:31.223Z,1028.65
2019-02-26T05:06:28.176Z,1028.65
2019-02-26T05:07:27.042Z,1028.64
2019-02-26T05:09:30.009Z,1028.60
2019-02-26T05:11:32.583Z,1028.61
2019-02-26T05:12:30.889Z,1028.60
2019-02-26T05:13:30.212Z,1028.59
2019-02-26T05:15:31.053Z,1028.60
2019-02-26T05:16:31.649Z,1028.59
2019-02-26T05:17:29.711Z,1028.60
2019-02-26T05:19:28.020Z,1028.55
2019-02-26T05:20:31.258Z,1028.57
2019-02-26T05:21:27.991Z,1028.55
2019-02-26T05:22:31.015Z,1028.56
2019-02-26T05:23:28.887Z,1028.67
2019-02-26T05:26:02.893Z,1028.63
2019-02-26T05:28:00.306Z,1028.63
2019-02-26T05:28:59.117Z,1028.67
2019-02-26T05:29:59.129Z,1028.67
2019-02-26T05:30:59.086Z,1028.70
2019-02-26T05:32:00.946Z,1028.66
2019-02-26T05:33:00.688Z,1028.62
2019-02-26T05:35:00.229Z,1028.61
2019-02-26T05:35:59.051Z,1028.58
2019-02-26T05:36:59.778Z,1028.64
2019-02-26T05:38:01.577Z,1028.59
2019-02-26T05:39:00.354Z,1028.61
2019-02-26T05:39:58.991Z,1028.63
2019-02-26T05:40:59.411Z,1028.65
2019-02-26T05:42:01.287Z,1028.64
2019-02-26T05:43:01.287Z,1028.64
2019-02-26T05:44:03.512Z,1028.63
2019-02-26T05:45:02.996Z,1028.67
2019-02-26T05:46:00.690Z,1028.67
2019-02-26T05:47:01.364Z,1028.66
2019-02-26T05:47:59.107Z,1028.66
2019-02-26T05:48:58.986Z,1028.67
2019-02-26T05:49:59.539Z,1028.65
2019-02-26T05:51:01.042Z,1028.64
2019-02-26T05:52:01.454Z,1028.69
2019-02-26T05:53:01.888Z,1028.71
2019-02-26T05:54:02.221Z,1028.80
2019-02-26T05:54:59.922Z,1028.77
2019-02-26T05:55:58.818Z,1028.80
2019-02-26T05:56:58.910Z,1028.83
2019-02-26T05:57:58.799Z,1028.81
2019-02-26T05:59:02.055Z,1028.84
2019-02-26T05:59:59.775Z,1028.82
2019-02-26T06:00:58.946Z,1028.92
2019-02-26T06:01:58.752Z,1028.89
2019-02-26T06:02:58.847Z,1028.90
2019-02-26T06:03:58.737Z,1028.90
2019-02-26T06:04:58.790Z,1029.00
2019-02-26T06:06:00.548Z,1028.92
2019-02-26T06:06:59.778Z,1028.91
2019-02-26T06:07:58.690Z,1028.92
2019-02-26T06:08:59.869Z,1028.95
2019-02-26T06:09:59.199Z,1028.95
2019-02-26T06:10:58.807Z,1028.97
2019-02-26T06:11:58.645Z,1028.95
2019-02-26T06:12:58.710Z,1028.90
2019-02-26T06:14:02.220Z,1028.90
2019-02-26T06:15:04.223Z,1028.93
2019-02-26T06:16:01.971Z,1028.90
2019-02-26T06:16:58.639Z,1028.91
2019-02-26T06:17:58.579Z,1028.85
2019-02-26T06:18:58.685Z,1028.88
2019-02-26T06:20:01.417Z,1028.81
2019-02-26T06:21:01.289Z,1028.80
2019-02-26T06:21:58.539Z,1028.83
2019-02-26T06:22:58.575Z,1028.77
2019-02-26T06:23:58.527Z,1028.78
2019-02-26T06:25:00.290Z,1028.77
2019-02-26T06:26:01.417Z,1028.76
2019-02-26T06:26:59.526Z,1028.72
2019-02-26T06:28:02.272Z,1028.79
2019-02-26T06:28:59.547Z,1028.76
2019-02-26T06:30:00.275Z,1028.71
2019-02-26T06:30:58.531Z,1028.80
2019-02-26T06:31:58.427Z,1028.77
2019-02-26T06:33:02.109Z,1028.74
2019-02-26T06:34:01.464Z,1028.75
2019-02-26T06:34:58.587Z,1028.71
2019-02-26T06:35:59.833Z,1028.74
2019-02-26T06:36:58.465Z,1028.66
2019-02-26T06:37:59.593Z,1028.65
2019-02-26T06:38:58.989Z,1028.67
2019-02-26T06:40:00.483Z,1028.57
2019-02-26T06:40:58.423Z,1028.62
2019-02-26T06:41:58.322Z,1028.62
2019-02-26T06:42:58.420Z,1028.62
2019-02-26T06:43:58.304Z,1028.61
2019-02-26T06:44:58.320Z,1028.67
2019-02-26T06:46:00.164Z,1028.62
2019-02-26T06:47:00.239Z,1028.65
2019-02-26T06:47:58.620Z,1028.65
2019-02-26T06:48:58.349Z,1028.71
2019-02-26T06:49:58.258Z,1028.68
2019-02-26T06:51:00.426Z,1028.71
2019-02-26T06:51:58.214Z,1028.67
2019-02-26T06:52:58.294Z,1028.63
2019-02-26T06:53:58.847Z,1028.69
2019-02-26T06:55:00.212Z,1028.69
2019-02-26T06:55:58.570Z,1028.61
2019-02-26T06:56:58.204Z,1028.58
2019-02-26T06:57:58.150Z,1028.62
2019-02-26T06:58:58.217Z,1028.65
2019-02-26T07:00:01.006Z,1028.64
2019-02-26T07:00:58.259Z,1028.61
2019-02-26T07:01:58.111Z,1028.71
2019-02-26T07:03:01.984Z,1028.72
2019-02-26T07:03:58.086Z,1028.70
2019-02-26T07:04:58.158Z,1028.70
2019-02-26T07:06:01.710Z,1028.72
2019-02-26T07:06:59.411Z,1028.72
2019-02-26T07:07:59.551Z,1028.70
2019-02-26T07:08:58.076Z,1028.68
2019-02-26T07:09:58.240Z,1028.73
2019-02-26T07:10:58.118Z,1028.70
2019-02-26T07:11:58.009Z,1028.73
2019-02-26T07:12:58.105Z,1028.71
2019-02-26T07:13:58.867Z,1028.75
2019-02-26T07:14:58.224Z,1028.71
2019-02-26T07:15:57.985Z,1028.75
2019-02-26T07:16:59.194Z,1028.70
2019-02-26T07:18:00.114Z,1028.78
2019-02-26T07:18:59.038Z,1028.78
2019-02-26T07:20:00.119Z,1028.79
2019-02-26T07:21:00.082Z,1028.73
2019-02-26T07:21:57.919Z,1028.78
2019-02-26T07:22:57.967Z,1028.81
2019-02-26T07:23:58.805Z,1028.78
2019-02-26T07:24:57.986Z,1028.74
2019-02-26T07:25:57.845Z,1028.77
2019-02-26T07:26:57.931Z,1028.78
2019-02-26T07:27:58.931Z,1028.74
2019-02-26T07:28:57.909Z,1028.81
2019-02-26T07:29:57.831Z,1028.79
2019-02-26T07:30:57.824Z,1028.74
2019-02-26T07:31:58.872Z,1028.73
2019-02-26T07:32:57.835Z,1028.79
2019-02-26T07:33:58.229Z,1028.78
2019-02-26T07:34:58.179Z,1028.73
2019-02-26T07:35:59.418Z,1028.88
2019-02-26T07:36:57.791Z,1028.88
2019-02-26T07:37:59.461Z,1028.85
2019-02-26T07:38:57.772Z,1028.86
2019-02-26T07:39:57.695Z,1028.91
2019-02-26T07:41:00.825Z,1028.97
2019-02-26T07:41:57.679Z,1028.98
2019-02-26T07:42:57.744Z,1028.97
2019-02-26T07:43:57.648Z,1028.99
2019-02-26T07:44:57.712Z,1029.05
2019-02-26T07:45:57.624Z,1029.07
2019-02-26T07:46:58.812Z,1029.08
2019-02-26T07:47:58.372Z,1029.14
2019-02-26T07:48:59.897Z,1029.08
2019-02-26T07:50:00.757Z,1029.05
2019-02-26T07:50:57.654Z,1029.06
2019-02-26T07:51:59.784Z,1029.13
2019-02-26T07:52:59.418Z,1029.06
2019-02-26T07:53:58.385Z,1028.99
2019-02-26T07:54:57.579Z,1029.02
2019-02-26T07:55:58.798Z,1029.05
2019-02-26T07:57:00.044Z,1028.97
2019-02-26T07:57:57.516Z,1028.95
2019-02-26T07:59:01.263Z,1028.92
2019-02-26T07:59:57.479Z,1028.95
2019-02-26T08:00:57.517Z,1028.96
2019-02-26T08:01:57.448Z,1028.94
2019-02-26T08:02:59.686Z,1028.93
2019-02-26T08:03:57.426Z,1028.93
2019-02-26T08:04:57.439Z,1028.92
2019-02-26T08:05:59.275Z,1029.03
2019-02-26T08:06:59.592Z,1028.96
2019-02-26T08:07:57.423Z,1028.89
2019-02-26T08:08:57.471Z,1028.92
2019-02-26T08:09:57.366Z,1028.91
2019-02-26T08:10:57.400Z,1028.90
2019-02-26T08:11:57.341Z,1028.88
2019-02-26T08:12:59.209Z,1028.87
2019-02-26T08:13:59.157Z,1028.88
2019-02-26T08:14:57.406Z,1028.84
2019-02-26T08:15:58.202Z,1028.85
2019-02-26T08:16:59.578Z,1028.84
2019-02-26T08:17:58.444Z,1028.89
2019-02-26T08:18:58.890Z,1028.81
2019-02-26T08:19:57.259Z,1028.93
2019-02-26T08:20:59.844Z,1028.87
2019-02-26T08:21:57.240Z,1028.89
2019-02-26T08:22:58.696Z,1028.81
2019-02-26T08:23:57.247Z,1028.92
2019-02-26T08:24:58.101Z,1028.92
2019-02-26T08:25:59.276Z,1028.90
2019-02-26T08:26:57.290Z,1028.95
2019-02-26T08:27:58.897Z,1028.94
2019-02-26T08:28:57.428Z,1028.94
2019-02-26T08:29:58.720Z,1028.99
2019-02-26T08:30:57.391Z,1028.96
2019-02-26T08:31:58.987Z,1028.99
2019-02-26T08:32:58.897Z,1028.96
2019-02-26T08:33:57.154Z,1028.99
2019-02-26T08:34:59.937Z,1029.01
2019-02-26T08:35:57.090Z,1029.01
2019-02-26T08:36:57.152Z,1029.03
2019-02-26T08:37:57.068Z,1029.04
2019-02-26T08:38:57.315Z,1029.04
2019-02-26T08:39:57.772Z,1029.01
2019-02-26T08:40:57.077Z,1029.06
2019-02-26T08:41:57.022Z,1029.04
2019-02-26T08:42:57.093Z,1029.09
2019-02-26T08:43:58.773Z,1029.07
2019-02-26T08:44:58.197Z,1029.08
2019-02-26T08:45:56.981Z,1029.04
2019-02-26T08:46:57.017Z,1029.05
2019-02-26T08:47:56.961Z,1029.07
2019-02-26T08:48:57.031Z,1029.08
2019-02-26T08:49:58.812Z,1029.09
2019-02-26T08:51:00.856Z,1029.08
2019-02-26T08:51:57.915Z,1029.11
2019-02-26T08:52:58.470Z,1029.07
2019-02-26T08:53:57.296Z,1029.06
2019-02-26T08:54:56.995Z,1029.02
2019-02-26T08:55:58.869Z,1028.98
2019-02-26T08:56:56.990Z,1029.08
2019-02-26T08:57:56.850Z,1029.04
2019-02-26T08:58:58.555Z,1029.08
2019-02-26T08:59:56.873Z,1028.99
2019-02-26T09:00:56.909Z,1029.04
2019-02-26T09:01:56.828Z,1028.98
2019-02-26T09:02:56.906Z,1028.93
2019-02-26T09:03:58.912Z,1028.99
2019-02-26T09:04:59.122Z,1028.96
2019-02-26T09:06:09.947Z,1028.92
2019-02-26T09:07:00.291Z,1028.92
2019-02-26T09:07:56.853Z,1028.89
2019-02-26T09:08:57.964Z,1028.86
2019-02-26T09:09:57.548Z,1028.91
2019-02-26T09:10:56.749Z,1028.88
2019-02-26T09:11:58.849Z,1028.91
2019-02-26T09:12:56.685Z,1028.87
2019-02-26T09:13:59.624Z,1028.91
2019-02-26T09:14:57.672Z,1028.85
2019-02-26T09:16:00.059Z,1028.90
2019-02-26T09:16:59.074Z,1028.92
2019-02-26T09:17:56.717Z,1028.89
2019-02-26T09:18:56.628Z,1029.01
2019-02-26T09:20:08.338Z,1029.00
2019-02-26T09:20:57.620Z,1029.01
2019-02-26T09:21:56.650Z,1028.94
2019-02-26T09:22:58.730Z,1029.04
2019-02-26T09:23:57.825Z,1029.00
2019-02-26T09:24:57.409Z,1029.01
2019-02-26T09:25:59.295Z,1028.97
2019-02-26T09:26:57.501Z,1029.00
2019-02-26T09:27:56.583Z,1029.01
2019-02-26T09:28:57.156Z,1029.06
2019-02-26T09:29:56.602Z,1029.02
2019-02-26T09:31:01.036Z,1029.01
2019-02-26T09:31:57.562Z,1029.10
2019-02-26T09:32:58.453Z,1029.02
2019-02-26T09:33:56.526Z,1029.07
2019-02-26T09:34:58.740Z,1029.11
2019-02-26T09:35:56.784Z,1029.12
2019-02-26T09:36:58.245Z,1029.06
2019-02-26T09:38:00.678Z,1029.12
2019-02-26T09:38:56.397Z,1029.11
2019-02-26T09:40:57.511Z,1029.18
2019-02-26T09:41:57.584Z,1029.18
2019-02-26T09:42:58.132Z,1029.21
2019-02-26T09:43:56.393Z,1029.24
2019-02-26T09:44:57.658Z,1029.20
2019-02-26T09:45:56.407Z,1029.21
2019-02-26T09:46:58.317Z,1029.24
2019-02-26T09:48:57.937Z,1029.23
2019-02-26T09:49:58.293Z,1029.23
2019-02-26T09:50:56.265Z,1029.23
2019-02-26T09:51:56.825Z,1029.24
2019-02-26T09:52:58.972Z,1029.30
2019-02-26T09:53:57.178Z,1029.23
2019-02-26T09:54:56.226Z,1029.19
2019-02-26T09:55:56.271Z,1029.23
2019-02-26T09:56:56.215Z,1029.24
2019-02-26T09:57:56.323Z,1029.29
2019-02-26T09:58:56.183Z,1029.28
2019-02-26T09:59:58.205Z,1029.30
2019-02-26T10:00:56.226Z,1029.29
2019-02-26T10:01:56.931Z,1029.29
2019-02-26T10:02:56.216Z,1029.34
2019-02-26T10:03:58.260Z,1029.29
2019-02-26T10:04:56.207Z,1029.39
2019-02-26T10:05:57.893Z,1029.42
2019-02-26T10:06:56.128Z,1029.42
2019-02-26T10:07:59.319Z,1029.40
2019-02-26T10:08:56.216Z,1029.35
2019-02-26T10:09:56.253Z,1029.39
2019-02-26T10:10:57.643Z,1029.38
2019-02-26T10:11:56.197Z,1029.40
2019-02-26T10:12:59.218Z,1029.44
2019-02-26T10:13:56.147Z,1029.42
2019-02-26T10:14:59.600Z,1029.42
2019-02-26T10:15:59.269Z,1029.46
2019-02-26T10:16:57.002Z,1029.48
2019-02-26T10:17:58.643Z,1029.46
2019-02-26T10:18:56.777Z,1029.48
2019-02-26T10:19:56.961Z,1029.45
2019-02-26T10:20:55.948Z,1029.39
2019-02-26T10:21:57.266Z,1029.47
2019-02-26T10:22:58.654Z,1029.30
2019-02-26T10:23:56.894Z,1029.39
2019-02-26T10:24:55.901Z,1029.32
2019-02-26T10:25:57.810Z,1029.32
2019-02-26T10:26:58.654Z,1029.32
2019-02-26T10:27:56.982Z,1029.28
2019-02-26T10:29:02.241Z,1029.28
2019-02-26T10:29:56.943Z,1029.23
2019-02-26T10:30:57.018Z,1029.31
2019-02-26T10:31:56.688Z,1029.31
2019-02-26T10:32:55.913Z,1029.29
2019-02-26T10:33:55.831Z,1029.29
2019-02-26T10:34:55.945Z,1029.35
2019-02-26T10:35:55.839Z,1029.26
2019-02-26T10:36:55.859Z,1029.30
2019-02-26T10:37:57.079Z,1029.27
2019-02-26T10:38:57.784Z,1029.29
2019-02-26T10:39:55.784Z,1029.31
2019-02-26T10:40:57.329Z,1029.23
2019-02-26T10:41:55.752Z,1029.27
2019-02-26T10:42:55.782Z,1029.21
2019-02-26T10:43:55.731Z,1029.22
2019-02-26T10:44:55.789Z,1029.22
2019-02-26T10:45:55.675Z,1029.24
2019-02-26T10:46:55.805Z,1029.25
2019-02-26T10:47:56.892Z,1029.21
2019-02-26T10:48:55.766Z,1029.21
2019-02-26T10:49:56.487Z,1029.25
2019-02-26T10:50:55.755Z,1029.28
2019-02-26T10:51:57.866Z,1029.24
2019-02-26T10:53:01.760Z,1029.24
2019-02-26T10:53:59.623Z,1029.21
2019-02-26T10:54:55.650Z,1029.20
2019-02-26T10:55:55.567Z,1029.22
2019-02-26T10:56:57.422Z,1029.19
2019-02-26T10:57:58.354Z,1029.24
2019-02-26T10:59:01.926Z,1029.23
2019-02-26T10:59:57.639Z,1029.23
2019-02-26T11:00:58.683Z,1029.25
2019-02-26T11:01:58.429Z,1029.23
2019-02-26T11:02:55.613Z,1029.21
2019-02-26T11:03:55.497Z,1029.22
2019-02-26T11:04:55.687Z,1029.22
2019-02-26T11:05:55.454Z,1029.17
2019-02-26T11:06:55.660Z,1029.14
2019-02-26T11:07:58.904Z,1029.25
2019-02-26T11:08:58.721Z,1029.18
2019-02-26T11:09:56.238Z,1029.14
2019-02-26T11:10:55.463Z,1029.13
2019-02-26T11:11:57.679Z,1029.19
2019-02-26T11:12:58.535Z,1029.15
2019-02-26T11:13:55.371Z,1029.20
2019-02-26T11:14:56.274Z,1029.16
2019-02-26T11:15:57.413Z,1029.13
2019-02-26T11:16:55.447Z,1029.10
2019-02-26T11:17:55.921Z,1029.11
2019-02-26T11:18:55.407Z,1029.12
2019-02-26T11:19:58.045Z,1029.09
2019-02-26T11:20:56.798Z,1029.05
2019-02-26T11:21:58.064Z,1029.08
2019-02-26T11:22:55.378Z,1029.10
2019-02-26T11:23:55.255Z,1029.10
2019-02-26T11:24:56.206Z,1029.09
2019-02-26T11:25:55.317Z,1029.06
2019-02-26T11:26:55.258Z,1029.02
2019-02-26T11:27:55.268Z,1029.05
2019-02-26T11:28:55.274Z,1028.99
2019-02-26T11:29:57.839Z,1029.09
2019-02-26T11:30:56.699Z,1029.00
2019-02-26T11:31:55.177Z,1029.02
2019-02-26T11:32:58.676Z,1029.03
2019-02-26T11:33:57.309Z,1029.01
2019-02-26T11:34:57.512Z,1029.00
2019-02-26T11:35:55.164Z,1028.97
2019-02-26T11:36:56.123Z,1029.01
2019-02-26T11:37:57.425Z,1029.00
2019-02-26T11:38:55.143Z,1029.02
2019-02-26T11:39:57.168Z,1029.04
2019-02-26T11:40:55.151Z,1029.02
2019-02-26T11:41:56.786Z,1029.02
2019-02-26T11:42:55.165Z,1029.03
2019-02-26T11:43:55.041Z,1029.03
2019-02-26T11:44:55.082Z,1028.99
2019-02-26T11:45:56.671Z,1029.00
2019-02-26T11:46:56.437Z,1028.91
2019-02-26T11:47:57.347Z,1028.95
2019-02-26T11:48:57.290Z,1029.01
2019-02-26T11:49:54.974Z,1028.94
2019-02-26T11:50:55.021Z,1028.93
2019-02-26T11:51:55.003Z,1028.92
2019-02-26T11:52:55.203Z,1028.87
2019-02-26T11:53:54.981Z,1028.86
2019-02-26T11:54:56.315Z,1028.88
2019-02-26T11:55:56.769Z,1028.87
2019-02-26T11:56:54.966Z,1028.87
2019-02-26T11:57:54.925Z,1028.87
2019-02-26T11:58:54.878Z,1028.80
2019-02-26T11:59:57.035Z,1028.80
2019-02-26T12:00:57.076Z,1028.80
2019-02-26T12:01:57.246Z,1028.80
2019-02-26T12:02:54.838Z,1028.77
2019-02-26T12:03:56.257Z,1028.79
2019-02-26T12:05:56.727Z,1028.80
2019-02-26T12:06:55.890Z,1028.75
2019-02-26T12:07:56.428Z,1028.68
2019-02-26T12:08:54.874Z,1028.66
2019-02-26T12:09:55.461Z,1028.63
2019-02-26T12:10:57.767Z,1028.68
2019-02-26T12:11:56.028Z,1028.72
2019-02-26T12:12:56.736Z,1028.67
2019-02-26T12:13:54.743Z,1028.64
2019-02-26T12:14:54.809Z,1028.64
2019-02-26T12:15:54.765Z,1028.55
2019-02-26T12:16:54.809Z,1028.53
2019-02-26T12:17:56.489Z,1028.58
2019-02-26T12:18:54.699Z,1028.50
2019-02-26T12:19:55.847Z,1028.57
2019-02-26T12:20:54.722Z,1028.50
2019-02-26T12:21:57.288Z,1028.47
2019-02-26T12:22:55.428Z,1028.56
2019-02-26T12:23:54.634Z,1028.53
2019-02-26T12:24:55.995Z,1028.50